Time;durP1;ratioP1;P1;durP2;ratioP2;P2;SDS_P1;SDS_P2;PMS_P1;PMS_P2;Temp;Humidity;BMP_temperature;BMP_pressure;BME280_temperature;BME280_humidity;BME280_pressure;Samples;Min_cycle;Max_cycle;Signal;HPM_P1;HPM_P2
2023/01/04 00:01:52;;;;;;;5.35;1.67;;;12.80;99.90;;;;;;5013511;28;20077;-80
2023/01/04 00:04:19;;;;;;;5.32;1.42;;;12.80;99.90;;;;;;5020983;28;20508;-81
2023/01/04 00:06:45;;;;;;;5.65;1.90;;;12.80;99.90;;;;;;5021868;28;20072;-81
2023/01/04 00:09:12;;;;;;;5.78;2.03;;;12.80;99.90;;;;;;5003419;28;20180;-81
2023/01/04 00:11:39;;;;;;;5.95;2.17;;;12.80;99.90;;;;;;5002198;28;20079;-80
2023/01/04 00:14:06;;;;;;;5.30;1.50;;;12.80;99.90;;;;;;4997350;28;20196;-81
2023/01/04 00:16:32;;;;;;;3.42;1.27;;;12.90;99.90;;;;;;5021831;28;20103;-81
2023/01/04 00:18:59;;;;;;;5.25;1.83;;;12.90;99.90;;;;;;5004842;28;20107;-81
2023/01/04 00:21:28;;;;;;;6.75;1.90;;;12.90;99.90;;;;;;5015869;28;20145;-80
2023/01/04 00:23:59;;;;;;;5.75;2.05;;;12.90;99.90;;;;;;5011965;28;20049;-81
2023/01/04 00:26:30;;;;;;;5.88;1.70;;;12.90;99.90;;;;;;5021773;28;20581;-81
2023/01/04 00:29:02;;;;;;;6.72;2.08;;;12.90;99.90;;;;;;5005755;28;20041;-81
2023/01/04 00:31:29;;;;;;;5.78;1.77;;;12.90;99.90;;;;;;5022080;28;20057;-81
2023/01/04 00:33:57;;;;;;;3.85;1.60;;;12.90;99.90;;;;;;5020616;28;20287;-81
2023/01/04 00:36:24;;;;;;;5.32;1.50;;;13.00;99.90;;;;;;5021168;28;20088;-80
2023/01/04 00:39:05;;;;;;;4.85;1.80;;;13.00;99.90;;;;;;5005123;28;20059;-81
2023/01/04 00:41:46;;;;;;;2.83;1.35;;;13.00;99.90;;;;;;5021540;28;20060;-80
2023/01/04 00:44:28;;;;;;;4.35;1.38;;;13.00;99.90;;;;;;5021682;28;20144;-81
2023/01/04 00:46:55;;;;;;;3.72;1.42;;;13.00;99.90;;;;;;5021498;28;20056;-80
2023/01/04 00:49:22;;;;;;;4.00;1.30;;;13.00;99.90;;;;;;5020300;28;20057;-81
2023/01/04 00:51:49;;;;;;;4.68;1.42;;;13.00;99.90;;;;;;5011073;28;20045;-80
2023/01/04 00:54:16;;;;;;;3.25;0.90;;;13.00;99.90;;;;;;5017510;28;20431;-80
2023/01/04 00:56:43;;;;;;;3.05;1.10;;;13.00;99.90;;;;;;4988803;28;20049;-80
2023/01/04 00:59:11;;;;;;;3.00;1.00;;;13.00;99.90;;;;;;5022677;28;20471;-80
2023/01/04 01:01:38;;;;;;;3.08;1.17;;;13.00;99.90;;;;;;5003804;28;20061;-80
2023/01/04 01:04:05;;;;;;;1.90;0.85;;;12.90;99.90;;;;;;5017677;28;20045;-80
2023/01/04 01:06:33;;;;;;;2.88;1.90;;;12.90;99.90;;;;;;4988484;28;20045;-80
2023/01/04 01:08:59;;;;;;;6.40;1.48;;;12.90;99.90;;;;;;4972037;28;20050;-80
2023/01/04 01:11:26;;;;;;;4.63;1.20;;;12.90;99.90;;;;;;5005967;28;20565;-80
2023/01/04 01:13:53;;;;;;;6.63;2.13;;;12.90;99.90;;;;;;5020118;28;20128;-80
2023/01/04 01:16:21;;;;;;;3.67;1.40;;;12.90;99.90;;;;;;5022135;28;20452;-81
2023/01/04 01:19:07;;;;;;;5.57;1.60;;;12.90;99.90;;;;;;4993379;28;20049;-81
2023/01/04 01:21:34;;;;;;;5.20;2.28;;;12.90;99.90;;;;;;5021427;28;20207;-80
2023/01/04 01:24:01;;;;;;;4.15;1.40;;;12.90;99.90;;;;;;5018289;28;20404;-80
2023/01/04 01:26:28;;;;;;;5.72;2.08;;;12.90;99.90;;;;;;5021175;28;20080;-81
2023/01/04 01:28:55;;;;;;;3.45;1.58;;;12.90;99.90;;;;;;5020853;28;20084;-80
2023/01/04 01:31:26;;;;;;;4.78;1.95;;;12.90;99.90;;;;;;5018959;28;20081;-81
2023/01/04 01:33:54;;;;;;;4.50;2.10;;;12.90;99.90;;;;;;5018750;28;20135;-80
2023/01/04 01:36:21;;;;;;;5.00;2.05;;;12.90;99.90;;;;;;5021676;28;20059;-80
2023/01/04 01:38:48;;;;;;;5.53;2.03;;;13.00;99.90;;;;;;5004167;28;20050;-81
2023/01/04 01:41:20;;;;;;;5.93;2.10;;;12.90;99.90;;;;;;5019436;28;20388;-80
2023/01/04 01:43:58;;;;;;;5.28;1.98;;;13.00;99.90;;;;;;5007296;28;20060;-80
2023/01/04 01:46:42;;;;;;;6.20;2.55;;;13.00;99.90;;;;;;5000490;28;20054;-80
2023/01/04 01:49:24;;;;;;;;;;;13.00;99.90;;;;;;4999979;28;20058;-81
2023/01/04 01:51:55;;;;;;;6.65;2.63;;;12.90;99.90;;;;;;5009183;28;20035;-80
2023/01/04 01:54:25;;;;;;;5.30;1.90;;;13.00;99.90;;;;;;4994280;28;20104;-80
2023/01/04 01:56:53;;;;;;;4.78;2.08;;;13.00;99.90;;;;;;4984118;28;20512;-80
2023/01/04 01:59:19;;;;;;;6.07;2.00;;;13.00;99.90;;;;;;5001106;28;20133;-80
2023/01/04 02:01:46;;;;;;;4.90;1.88;;;13.00;99.90;;;;;;5019197;28;20481;-80
2023/01/04 02:04:14;;;;;;;5.97;1.77;;;13.00;99.90;;;;;;5001873;28;20046;-80
2023/01/04 02:06:44;;;;;;;8.15;2.17;;;13.00;99.90;;;;;;4987488;28;20056;-80
2023/01/04 02:09:11;;;;;;;5.95;1.98;;;13.00;99.90;;;;;;4978046;28;20128;-80
2023/01/04 02:11:38;;;;;;;5.20;2.00;;;13.00;99.90;;;;;;5005693;28;20054;-81
2023/01/04 02:17:15;;;;;;;7.05;1.85;;;13.10;99.90;;;;;;5020538;28;20059;-80
2023/01/04 02:20:00;;;;;;;4.45;1.63;;;13.10;99.90;;;;;;5016476;28;20054;-80
2023/01/04 02:22:57;;;;;;;6.88;1.80;;;13.20;99.90;;;;;;5012879;28;20136;-80
2023/01/04 02:25:42;;;;;;;5.90;1.80;;;13.10;99.90;;;;;;5014368;28;20128;-80
2023/01/04 02:28:28;;;;;;;3.80;1.40;;;13.10;99.90;;;;;;5021603;28;20041;-80
2023/01/04 02:31:23;;;;;;;4.30;1.98;;;13.20;99.90;;;;;;5017789;28;20135;-79
2023/01/04 02:34:07;;;;;;;5.10;1.70;;;13.20;99.90;;;;;;5009957;28;20976;-79
2023/01/04 02:36:52;;;;;;;3.97;1.73;;;13.10;99.90;;;;;;5012164;28;20072;-79
2023/01/04 02:39:37;;;;;;;4.63;1.85;;;13.20;99.90;;;;;;5021458;28;20050;-79
2023/01/04 02:44:51;;;;;;;4.65;2.17;;;13.10;99.90;;;;;;5011226;28;20133;-78
2023/01/04 02:45:11;;;;;;;7.13;2.83;;;13.10;99.90;;;;;;5006698;28;20136;-79
2023/01/04 02:50:31;;;;;;;6.15;2.22;;;13.10;99.90;;;;;;5007463;28;20049;-79
2023/01/04 02:53:08;;;;;;;5.85;1.65;;;13.10;99.90;;;;;;5012857;28;20256;-79
2023/01/04 02:55:55;;;;;;;5.32;2.38;;;13.10;99.90;;;;;;5019031;28;20166;-79
2023/01/04 02:58:41;;;;;;;5.28;1.75;;;13.10;99.90;;;;;;5027789;28;20045;-80
2023/01/04 03:07:21;;;;;;;3.30;1.30;;;13.00;99.90;;;;;;5006977;28;20134;-79
2023/01/04 03:09:49;;;;;;;4.65;1.50;;;13.00;99.90;;;;;;5010096;28;20038;-80
2023/01/04 03:12:30;;;;;;;4.10;1.58;;;13.00;99.90;;;;;;5008126;28;20060;-80
2023/01/04 03:15:03;;;;;;;5.65;1.98;;;13.10;99.90;;;;;;5012209;28;20069;-79
2023/01/04 03:17:36;;;;;;;6.47;2.28;;;13.00;99.90;;;;;;5026154;28;20064;-80
2023/01/04 03:20:03;;;;;;;4.05;1.60;;;13.00;99.90;;;;;;5006433;28;20049;-79
2023/01/04 03:37:15;;;;;;;6.13;2.42;;;12.90;99.90;;;;;;5010615;28;20460;-81
2023/01/04 03:48:47;;;;;;;3.85;1.70;;;12.90;99.90;;;;;;5010785;28;20053;-80
2023/01/04 03:51:20;;;;;;;3.90;1.57;;;12.90;99.90;;;;;;5015609;28;20057;-80
2023/01/04 03:54:02;;;;;;;;;;;12.90;99.90;;;;;;5019495;28;20310;-79
2023/01/04 03:56:29;;;;;;;3.97;1.35;;;12.90;99.90;;;;;;5025206;28;19960;-81
2023/01/04 03:58:56;;;;;;;3.42;1.23;;;12.90;99.90;;;;;;5009869;28;20077;-80
2023/01/04 04:01:24;;;;;;;3.60;1.58;;;12.90;99.90;;;;;;5017333;28;20088;-80
2023/01/04 04:09:22;;;;;;;2.78;1.00;;;12.80;99.90;;;;;;5012633;28;20045;-79
2023/01/04 04:11:49;;;;;;;2.35;0.88;;;12.80;99.90;;;;;;5011436;28;20054;-79
2023/01/04 04:14:15;;;;;;;1.67;0.80;;;12.80;99.90;;;;;;5006469;28;20104;-79
2023/01/04 04:16:42;;;;;;;2.47;1.13;;;12.80;99.90;;;;;;5009086;28;20079;-80
2023/01/04 04:19:09;;;;;;;1.52;0.70;;;12.80;99.90;;;;;;5007911;28;20050;-80
2023/01/04 04:21:36;;;;;;;1.95;0.82;;;12.90;99.90;;;;;;5021778;28;20053;-79
2023/01/04 04:24:03;;;;;;;2.47;0.90;;;12.80;99.90;;;;;;5025178;28;20084;-79
2023/01/04 04:26:29;;;;;;;1.60;0.80;;;12.90;99.90;;;;;;5025166;28;20057;-80
2023/01/04 04:28:56;;;;;;;3.00;0.85;;;12.90;99.90;;;;;;5026720;28;20056;-82
2023/01/04 04:31:23;;;;;;;2.20;0.95;;;12.90;99.90;;;;;;5014833;28;20129;-80
2023/01/04 04:33:50;;;;;;;1.88;0.80;;;12.90;99.90;;;;;;5011699;28;20050;-79
2023/01/04 04:36:16;;;;;;;2.45;1.10;;;12.90;99.90;;;;;;5006578;28;20513;-79
2023/01/04 04:38:43;;;;;;;2.22;0.80;;;12.90;99.90;;;;;;5007033;28;20050;-79
2023/01/04 04:43:57;;;;;;;3.90;1.10;;;12.90;99.90;;;;;;5019046;28;20103;-78
2023/01/04 04:46:23;;;;;;;2.17;1.00;;;12.90;99.90;;;;;;5008250;28;20411;-80
2023/01/04 04:48:50;;;;;;;2.78;0.90;;;13.00;99.90;;;;;;5022475;28;20053;-80
2023/01/04 04:51:17;;;;;;;3.10;1.20;;;13.00;99.90;;;;;;4983428;28;20518;-79
2023/01/04 04:53:44;;;;;;;2.95;0.93;;;13.00;99.90;;;;;;5016639;28;20049;-80
2023/01/04 04:56:10;;;;;;;2.35;1.10;;;13.00;99.90;;;;;;5008509;28;20466;-79
2023/01/04 04:58:37;;;;;;;2.00;0.80;;;13.00;99.90;;;;;;4992949;28;20164;-79
2023/01/04 05:01:04;;;;;;;1.70;0.80;;;13.10;99.90;;;;;;5008387;28;20137;-79
2023/01/04 05:03:31;;;;;;;3.38;0.90;;;13.10;99.90;;;;;;4991342;28;20053;-79
2023/01/04 05:05:58;;;;;;;1.83;0.80;;;13.00;99.90;;;;;;5005579;28;20063;-80
2023/01/04 05:08:25;;;;;;;1.75;0.73;;;13.10;99.90;;;;;;5006163;28;20042;-80
2023/01/04 05:10:52;;;;;;;2.40;0.85;;;13.10;99.90;;;;;;4989750;28;20061;-80
2023/01/04 05:13:18;;;;;;;1.35;0.68;;;13.10;99.90;;;;;;5013775;28;20124;-79
2023/01/04 05:15:47;;;;;;;3.50;1.42;;;13.20;99.90;;;;;;5008095;28;20058;-79
2023/01/04 05:18:15;;;;;;;2.30;1.20;;;13.20;99.90;;;;;;5004667;28;20458;-80
2023/01/04 05:20:42;;;;;;;2.03;1.10;;;13.20;99.90;;;;;;5008725;28;20042;-80
2023/01/04 05:23:10;;;;;;;2.15;0.82;;;13.30;99.90;;;;;;5023643;28;20049;-79
2023/01/04 05:25:36;;;;;;;2.17;1.00;;;13.30;99.90;;;;;;5007283;28;20063;-79
2023/01/04 05:28:03;;;;;;;4.68;1.15;;;13.30;99.90;;;;;;5021032;28;20052;-80
2023/01/04 05:33:25;;;;;;;3.60;1.50;;;13.30;99.90;;;;;;5025601;28;20503;-79
2023/01/04 05:35:52;;;;;;;3.97;1.65;;;13.30;99.90;;;;;;5009116;28;20053;-79
2023/01/04 05:38:19;;;;;;;3.42;1.45;;;13.30;99.90;;;;;;5006208;28;20061;-80
2023/01/04 05:40:46;;;;;;;3.88;1.80;;;13.30;99.90;;;;;;5004534;28;20125;-80
2023/01/04 05:43:13;;;;;;;2.95;1.27;;;13.30;99.90;;;;;;4994978;28;20060;-80
2023/01/04 05:45:42;;;;;;;3.15;1.23;;;13.30;99.90;;;;;;4993534;28;20042;-80
2023/01/04 05:48:09;;;;;;;5.22;2.05;;;13.20;99.90;;;;;;5017824;28;20195;-79
2023/01/04 05:50:36;;;;;;;6.20;2.45;;;13.10;99.90;;;;;;5026468;28;20056;-80
2023/01/04 05:53:03;;;;;;;6.78;2.42;;;13.10;99.90;;;;;;5021317;28;20060;-80
2023/01/04 05:55:30;;;;;;;4.18;1.65;;;13.00;99.90;;;;;;5004687;28;20119;-80
2023/01/04 05:57:56;;;;;;;4.82;1.88;;;13.00;99.90;;;;;;5002662;28;20505;-79
2023/01/04 06:00:23;;;;;;;4.22;1.83;;;13.00;99.90;;;;;;5003950;28;20063;-81
2023/01/04 06:02:51;;;;;;;4.32;1.80;;;13.00;99.90;;;;;;5021364;28;20241;-80
2023/01/04 06:05:18;;;;;;;4.90;1.70;;;12.90;99.90;;;;;;5017705;28;20542;-81
2023/01/04 06:07:45;;;;;;;5.57;2.22;;;12.90;99.90;;;;;;5019906;28;20480;-80
2023/01/04 06:10:13;;;;;;;3.92;1.77;;;12.80;99.90;;;;;;5018644;28;20065;-80
2023/01/04 06:12:39;;;;;;;5.47;1.52;;;12.80;99.90;;;;;;5016899;28;20140;-80
2023/01/04 06:15:07;;;;;;;3.40;1.83;;;12.80;99.90;;;;;;5023721;28;20037;-80
2023/01/04 06:17:34;;;;;;;3.95;1.50;;;12.80;99.90;;;;;;5015458;28;20055;-80
2023/01/04 06:20:01;;;;;;;3.90;1.30;;;12.70;99.90;;;;;;4999562;28;20048;-81
2023/01/04 06:22:28;;;;;;;3.30;1.27;;;12.70;99.90;;;;;;5009407;28;20492;-80
2023/01/04 06:24:55;;;;;;;4.75;1.52;;;12.80;99.90;;;;;;5011558;28;20062;-81
2023/01/04 06:27:22;;;;;;;2.60;1.30;;;12.80;99.90;;;;;;5008540;28;20045;-80
2023/01/04 06:29:48;;;;;;;2.90;1.08;;;12.80;99.90;;;;;;5008442;28;20042;-80
2023/01/04 06:32:15;;;;;;;2.45;1.20;;;12.80;99.90;;;;;;5007125;28;20042;-80
2023/01/04 06:34:42;;;;;;;4.50;1.27;;;12.90;99.90;;;;;;5007891;28;20056;-81
2023/01/04 06:37:09;;;;;;;2.78;1.05;;;12.90;99.90;;;;;;4992313;28;20053;-80
2023/01/04 06:39:38;;;;;;;4.13;1.33;;;12.90;99.90;;;;;;5016231;28;20053;-80
2023/01/04 06:42:43;;;;;;;2.10;1.02;;;12.90;99.90;;;;;;5008716;28;20120;-80
2023/01/04 06:44:52;;;;;;;3.83;1.73;;;13.00;99.90;;;;;;5004615;28;20049;-80
2023/01/04 06:47:19;;;;;;;2.97;1.20;;;13.00;99.90;;;;;;5020213;28;20144;-80
2023/01/04 06:49:45;;;;;;;3.70;1.20;;;13.00;99.90;;;;;;5015240;28;20128;-81
2023/01/04 06:52:12;;;;;;;3.05;1.15;;;13.00;99.90;;;;;;5012352;28;20520;-82
2023/01/04 06:54:39;;;;;;;2.78;1.02;;;13.00;99.90;;;;;;5029282;28;20049;-80
2023/01/04 06:57:06;;;;;;;2.35;0.82;;;13.10;99.90;;;;;;5011971;28;20362;-83
2023/01/04 06:59:32;;;;;;;1.90;1.10;;;13.10;99.90;;;;;;5014953;28;20064;-83
2023/01/04 07:01:59;;;;;;;2.72;0.95;;;13.10;99.90;;;;;;5011242;28;20504;-82
2023/01/04 07:04:26;;;;;;;2.38;1.17;;;13.10;99.90;;;;;;5000071;28;20128;-84
2023/01/04 07:06:53;;;;;;;2.63;1.05;;;13.10;99.90;;;;;;4992923;28;20049;-81
2023/01/04 07:09:19;;;;;;;5.32;1.55;;;13.10;99.90;;;;;;5014811;28;20042;-84
2023/01/04 07:11:46;;;;;;;1.92;1.08;;;13.10;99.90;;;;;;5011791;28;20077;-83
2023/01/04 07:14:13;;;;;;;2.60;1.02;;;13.10;99.90;;;;;;5017925;28;20077;-83
2023/01/04 07:16:40;;;;;;;2.10;1.17;;;13.00;99.90;;;;;;5008201;28;20147;-83
2023/01/04 07:19:07;;;;;;;2.58;0.90;;;13.00;99.90;;;;;;5012436;28;20104;-83
2023/01/04 07:21:34;;;;;;;2.60;1.10;;;12.90;99.90;;;;;;5015298;28;20049;-83
2023/01/04 07:24:01;;;;;;;3.83;1.13;;;12.90;99.90;;;;;;5016356;28;20508;-84
2023/01/04 07:26:27;;;;;;;4.40;1.20;;;12.90;99.90;;;;;;5018517;28;20069;-83
2023/01/04 07:29:37;;;;;;;5.07;2.08;;;12.90;99.90;;;;;;5008215;28;20071;-82
2023/01/04 07:31:45;;;;;;;2.92;1.45;;;12.80;99.90;;;;;;5028988;28;20172;-78
2023/01/04 07:34:13;;;;;;;2.90;1.10;;;12.90;99.90;;;;;;5019942;28;20050;-78
2023/01/04 07:36:40;;;;;;;3.35;1.35;;;12.80;99.90;;;;;;5019275;28;20156;-78
2023/01/04 07:39:09;;;;;;;6.18;1.75;;;12.80;99.90;;;;;;5015910;28;20052;-78
2023/01/04 07:41:37;;;;;;;3.35;1.20;;;12.80;99.90;;;;;;5019279;28;20046;-77
2023/01/04 07:44:04;;;;;;;2.15;0.98;;;12.80;99.90;;;;;;5008287;28;20072;-80
2023/01/04 07:46:31;;;;;;;4.00;1.33;;;12.80;99.90;;;;;;5029523;28;20057;-90
2023/01/04 07:48:58;;;;;;;4.85;1.73;;;12.70;99.90;;;;;;5024861;28;20058;-93
2023/01/04 07:51:25;;;;;;;2.38;1.00;;;12.80;99.90;;;;;;5020994;28;20460;-87
2023/01/04 07:53:52;;;;;;;2.83;0.85;;;12.80;99.90;;;;;;5009151;28;20147;-88
2023/01/04 07:56:20;;;;;;;2.38;0.90;;;12.80;99.90;;;;;;5024591;28;20481;-88
2023/01/04 07:58:47;;;;;;;2.35;0.77;;;12.80;99.90;;;;;;5007336;28;20394;-87
2023/01/04 08:01:16;;;;;;;2.83;1.38;;;12.80;99.90;;;;;;5027748;28;20061;-87
2023/01/04 08:03:46;;;;;;;3.00;0.98;;;12.90;99.90;;;;;;5023011;28;20225;-88
2023/01/04 08:06:13;;;;;;;4.25;1.45;;;12.90;99.90;;;;;;4986760;28;20081;-85
2023/01/04 08:08:40;;;;;;;3.28;1.40;;;12.90;99.90;;;;;;5024804;28;20178;-81
2023/01/04 08:11:12;;;;;;;2.83;0.88;;;13.00;99.90;;;;;;5024284;28;20136;-81
2023/01/04 08:13:39;;;;;;;2.75;1.20;;;12.90;99.90;;;;;;5022069;28;20120;-85
2023/01/04 08:16:06;;;;;;;3.25;1.00;;;13.00;99.90;;;;;;5025363;28;20111;-90
2023/01/04 08:18:33;;;;;;;1.70;1.00;;;13.00;99.90;;;;;;5025640;28;20526;-84
2023/01/04 08:21:02;;;;;;;2.95;0.80;;;13.00;99.90;;;;;;5014992;28;20049;-86
2023/01/04 08:23:29;;;;;;;1.92;1.00;;;13.00;99.90;;;;;;5023847;28;20433;-86
2023/01/04 08:26:10;;;;;;;2.08;1.02;;;13.00;99.90;;;;;;5008518;28;20176;-85
2023/01/04 08:28:37;;;;;;;1.83;0.82;;;13.10;99.90;;;;;;5023260;28;20052;-85
2023/01/04 08:31:12;;;;;;;2.38;0.80;;;13.10;99.90;;;;;;5025509;28;20121;-85
2023/01/04 08:33:39;;;;;;;2.60;1.38;;;13.10;99.90;;;;;;5018067;28;20055;-84
2023/01/04 08:36:10;;;;;;;2.10;1.10;;;13.10;99.90;;;;;;5018466;28;20294;-85
2023/01/04 08:38:37;;;;;;;4.55;1.60;;;13.10;99.90;;;;;;5002708;28;20053;-85
2023/01/04 08:41:25;;;;;;;4.93;1.30;;;13.20;99.90;;;;;;5019845;28;20045;-86
2023/01/04 08:44:11;;;;;;;2.35;1.13;;;13.20;99.90;;;;;;4999770;28;20555;-85
2023/01/04 08:46:38;;;;;;;2.10;1.00;;;13.20;99.90;;;;;;5027397;28;20041;-85
2023/01/04 08:49:06;;;;;;;2.25;0.90;;;13.20;99.90;;;;;;5004004;28;20144;-86
2023/01/04 08:51:33;;;;;;;3.08;1.35;;;13.20;99.90;;;;;;5018053;28;20095;-86
2023/01/04 08:53:59;;;;;;;5.00;1.30;;;13.30;99.90;;;;;;5020432;28;20049;-86
2023/01/04 08:56:26;;;;;;;3.10;1.00;;;13.30;99.90;;;;;;5015580;28;20144;-85
2023/01/04 08:58:53;;;;;;;3.45;1.10;;;13.30;99.90;;;;;;5023612;28;20053;-88
2023/01/04 09:01:19;;;;;;;5.53;1.55;;;13.30;99.90;;;;;;5018590;28;20068;-86
2023/01/04 09:03:46;;;;;;;2.47;0.80;;;13.30;99.90;;;;;;5021560;28;20140;-86
2023/01/04 09:06:14;;;;;;;3.70;0.95;;;13.40;99.90;;;;;;5015198;28;20352;-85
2023/01/04 09:08:41;;;;;;;7.00;2.30;;;13.40;99.90;;;;;;5006088;28;20090;-86
2023/01/04 09:11:13;;;;;;;3.45;1.67;;;13.50;99.90;;;;;;4998296;28;20049;-84
2023/01/04 09:13:40;;;;;;;5.55;2.00;;;13.50;99.90;;;;;;5021931;28;20046;-87
2023/01/04 09:16:08;;;;;;;4.05;1.85;;;13.50;99.90;;;;;;5023673;28;20362;-86
2023/01/04 09:18:35;;;;;;;4.18;1.17;;;13.60;99.90;;;;;;5005714;28;20052;-86
2023/01/04 09:21:10;;;;;;;3.17;1.52;;;13.60;99.90;;;;;;5021025;28;20054;-84
2023/01/04 09:23:38;;;;;;;3.38;1.90;;;13.60;99.90;;;;;;5014893;28;20434;-86
2023/01/04 09:26:09;;;;;;;4.22;1.38;;;13.70;99.90;;;;;;4994634;28;20676;-86
2023/01/04 09:28:36;;;;;;;3.75;1.27;;;13.70;99.90;;;;;;5021990;28;20132;-85
2023/01/04 09:31:07;;;;;;;4.13;1.30;;;13.70;99.90;;;;;;5007428;28;20053;-87
2023/01/04 09:33:34;;;;;;;6.25;1.85;;;13.70;99.90;;;;;;5020967;28;20436;-82
2023/01/04 09:36:22;;;;;;;4.45;1.30;;;13.70;99.90;;;;;;5018655;28;20053;-85
2023/01/04 09:38:50;;;;;;;6.43;1.60;;;13.80;99.90;;;;;;5012716;28;20369;-85
2023/01/04 09:41:29;;;;;;;5.07;1.85;;;13.80;99.90;;;;;;5005128;28;20394;-83
2023/01/04 09:44:03;;;;;;;5.53;1.70;;;13.80;99.90;;;;;;5017900;28;20133;-85
2023/01/04 09:46:42;;;;;;;7.10;1.60;;;13.80;99.90;;;;;;5017801;28;20073;-82
2023/01/04 09:49:38;;;;;;;4.68;1.77;;;13.80;99.90;;;;;;5010023;28;20065;-84
2023/01/04 09:52:46;;;;;;;3.45;1.80;;;13.90;99.90;;;;;;5005916;28;20061;-85
2023/01/04 09:55:35;;;;;;;6.10;2.10;;;13.90;99.90;;;;;;4979549;28;20061;-83
2023/01/04 09:58:10;;;;;;;;;;;13.90;99.90;;;;;;4961640;28;20173;-84
2023/01/04 10:00:41;;;;;;;5.10;1.63;;;13.90;99.90;;;;;;5001255;28;19972;-85
2023/01/04 10:03:21;;;;;;;2.95;1.50;;;14.00;99.90;;;;;;5008554;28;20394;-83
2023/01/04 10:05:48;;;;;;;4.35;1.65;;;14.00;99.90;;;;;;5005514;28;20060;-86
2023/01/04 10:08:16;;;;;;;6.05;2.38;;;14.00;99.90;;;;;;5003814;28;20060;-83
2023/01/04 10:11:21;;;;;;;4.47;1.88;;;14.00;99.90;;;;;;5003492;28;20506;-84
2023/01/04 10:14:13;;;;;;;5.35;1.83;;;14.10;99.90;;;;;;5002178;28;20561;-83
2023/01/04 10:16:58;;;;;;;5.50;1.80;;;14.10;99.90;;;;;;4998884;28;20053;-83
2023/01/04 10:20:17;;;;;;;4.55;1.92;;;14.20;99.90;;;;;;5004010;28;20049;-83
2023/01/04 10:23:21;;;;;;;6.35;2.30;;;14.20;99.90;;;;;;5003120;28;20043;-80
2023/01/04 10:26:05;;;;;;;5.32;2.00;;;14.20;99.90;;;;;;5014454;28;20042;-85
2023/01/04 10:28:45;;;;;;;5.43;1.70;;;14.20;99.90;;;;;;4998618;28;20198;-82
2023/01/04 10:31:41;;;;;;;3.78;1.38;;;14.30;99.90;;;;;;5011119;28;20084;-82
2023/01/04 10:34:28;;;;;;;5.43;2.20;;;14.30;99.90;;;;;;5002910;28;20442;-83
2023/01/04 10:36:57;;;;;;;4.15;1.85;;;14.30;99.90;;;;;;4985110;28;20085;-83
2023/01/04 10:39:26;;;;;;;5.95;2.10;;;14.30;99.90;;;;;;5005142;28;20057;-83
2023/01/04 10:42:02;;;;;;;5.18;2.10;;;14.30;99.90;;;;;;5003753;28;20092;-82
2023/01/04 10:45:02;;;;;;;5.75;2.05;;;14.30;99.90;;;;;;4983881;28;20489;-83
2023/01/04 10:47:57;;;;;;;5.53;1.92;;;14.40;99.90;;;;;;4982620;28;20112;-83
2023/01/04 10:50:26;;;;;;;5.30;1.75;;;14.40;99.90;;;;;;4975654;28;20132;-83
2023/01/04 10:53:11;;;;;;;5.88;2.10;;;14.40;99.90;;;;;;5004959;28;20057;-83
2023/01/04 10:55:45;;;;;;;6.68;1.90;;;14.40;99.90;;;;;;4992363;28;20049;-82
2023/01/04 10:58:49;;;;;;;6.28;2.13;;;14.40;99.90;;;;;;5009681;28;20050;-78
2023/01/04 11:01:22;;;;;;;8.63;2.75;;;14.40;99.90;;;;;;5008237;28;20053;-78
2023/01/04 11:04:05;;;;;;;5.57;2.22;;;14.50;99.90;;;;;;5020082;28;20564;-76
2023/01/04 11:06:45;;;;;;;8.63;2.33;;;14.40;99.90;;;;;;4976748;28;20642;-78
2023/01/04 11:09:14;;;;;;;5.93;2.65;;;14.50;99.90;;;;;;5010909;28;20054;-77
2023/01/04 11:11:49;;;;;;;4.55;2.33;;;14.50;99.90;;;;;;5021071;28;20060;-77
2023/01/04 11:14:16;;;;;;;5.05;1.40;;;14.50;99.90;;;;;;5002526;28;20041;-77
2023/01/04 11:16:45;;;;;;;6.95;2.50;;;14.50;99.90;;;;;;4985729;28;20056;-77
2023/01/04 11:19:12;;;;;;;7.05;2.80;;;14.50;99.90;;;;;;5016718;28;20129;-77
2023/01/04 11:21:44;;;;;;;7.38;2.70;;;14.50;99.90;;;;;;4995685;28;20050;-77
2023/01/04 11:24:11;;;;;;;9.23;2.63;;;14.60;99.90;;;;;;5005914;28;20053;-78
2023/01/04 11:27:02;;;;;;;8.27;2.70;;;14.60;99.90;;;;;;5009000;28;20054;-77
2023/01/04 11:29:36;;;;;;;8.48;3.10;;;14.60;99.90;;;;;;5007865;28;20461;-77
2023/01/04 11:32:34;;;;;;;4.80;2.17;;;14.70;99.90;;;;;;5021925;28;20064;-77
2023/01/04 11:35:01;;;;;;;6.20;2.47;;;14.60;99.90;;;;;;5003106;28;20049;-77
2023/01/04 11:37:28;;;;;;;4.50;2.10;;;14.70;99.90;;;;;;5026080;28;20397;-78
2023/01/04 11:40:15;;;;;;;4.90;2.15;;;14.60;99.90;;;;;;5020542;28;20045;-77
2023/01/04 11:42:46;;;;;;;9.05;2.35;;;14.70;99.90;;;;;;5009297;28;20067;-78
2023/01/04 11:45:20;;;;;;;7.20;2.30;;;14.60;99.90;;;;;;5007054;28;20424;-77
2023/01/04 11:47:54;;;;;;;7.28;2.58;;;14.70;99.90;;;;;;5022604;28;20168;-77
2023/01/04 11:50:34;;;;;;;7.15;2.35;;;14.70;99.90;;;;;;5007961;28;20174;-78
2023/01/04 11:53:01;;;;;;;9.23;2.33;;;14.70;99.90;;;;;;5017046;28;20555;-77
2023/01/04 11:55:29;;;;;;;7.25;2.42;;;14.80;99.90;;;;;;5008553;28;20531;-78
2023/01/04 11:58:13;;;;;;;5.80;1.90;;;14.80;99.90;;;;;;5008782;28;20053;-78
2023/01/04 12:00:48;;;;;;;7.35;2.67;;;14.80;99.90;;;;;;5025667;28;20071;-77
2023/01/04 12:03:18;;;;;;;6.55;2.78;;;14.80;99.90;;;;;;5020070;28;20802;-77
2023/01/04 12:05:44;;;;;;;6.18;2.80;;;14.70;99.90;;;;;;5004883;28;20046;-77
2023/01/04 12:08:31;;;;;;;9.68;2.85;;;14.70;99.90;;;;;;4986179;28;20123;-77
2023/01/04 12:10:59;;;;;;;6.47;2.85;;;14.70;99.90;;;;;;5019835;28;20137;-78
2023/01/04 12:13:27;;;;;;;6.78;2.50;;;14.70;99.90;;;;;;4995516;28;20137;-78
2023/01/04 12:16:13;;;;;;;5.50;2.13;;;14.70;99.90;;;;;;5007463;28;20123;-77
2023/01/04 12:18:43;;;;;;;7.38;2.20;;;14.70;99.90;;;;;;5043599;28;20131;-78
2023/01/04 12:21:24;;;;;;;8.18;3.00;;;14.70;99.90;;;;;;5025600;28;20052;-77
2023/01/04 12:23:51;;;;;;;6.53;2.30;;;14.60;99.90;;;;;;4998335;28;20679;-77
2023/01/04 12:26:18;;;;;;;8.10;2.75;;;14.60;99.90;;;;;;4989609;28;20084;-75
2023/01/04 12:28:47;;;;;;;10.20;3.50;;;14.60;99.90;;;;;;4989238;28;20495;-75
2023/01/04 12:31:20;;;;;;;9.13;3.15;;;14.60;99.90;;;;;;4989791;28;20129;-75
2023/01/04 12:33:53;;;;;;;7.05;2.30;;;14.60;99.90;;;;;;5021973;28;20387;-75
2023/01/04 12:36:41;;;;;;;9.10;3.25;;;14.60;99.90;;;;;;5022135;28;20033;-75
2023/01/04 12:39:11;;;;;;;7.03;2.58;;;14.50;99.90;;;;;;5014003;28;20057;-74
2023/01/04 12:41:38;;;;;;;6.32;2.47;;;14.50;99.90;;;;;;5022010;28;20160;-75
2023/01/04 12:44:37;;;;;;;6.30;2.60;;;14.60;99.90;;;;;;5022284;28;20639;-74
2023/01/04 12:50:07;;;;;;;5.90;2.63;;;14.60;99.90;;;;;;5019759;28;20053;-75
2023/01/04 12:52:44;;;;;;;8.95;2.90;;;14.60;99.90;;;;;;4997428;28;20053;-75
2023/01/04 12:55:30;;;;;;;7.57;2.83;;;14.50;99.90;;;;;;5005571;28;20046;-75
2023/01/04 12:58:01;;;;;;;7.90;3.15;;;14.50;99.90;;;;;;5009660;28;20510;-75
2023/01/04 13:00:50;;;;;;;7.32;3.00;;;14.40;99.90;;;;;;5003675;28;20041;-76
2023/01/04 13:03:17;;;;;;;8.65;3.20;;;14.40;99.90;;;;;;5024678;28;20081;-75
2023/01/04 13:06:01;;;;;;;6.47;2.53;;;14.40;99.90;;;;;;5020724;28;20064;-76
2023/01/04 13:08:32;;;;;;;5.03;2.38;;;14.40;99.90;;;;;;5021724;28;20045;-74
2023/01/04 13:10:59;;;;;;;9.25;2.83;;;14.50;99.90;;;;;;5017458;28;20273;-74
2023/01/04 13:13:36;;;;;;;7.53;2.92;;;14.50;99.90;;;;;;5000284;28;20041;-74
2023/01/04 13:16:25;;;;;;;8.15;3.08;;;14.50;99.90;;;;;;5019192;28;20554;-74
2023/01/04 13:18:55;;;;;;;9.10;3.33;;;14.40;99.90;;;;;;5015648;28;20049;-74
2023/01/04 13:21:41;;;;;;;10.43;3.45;;;14.30;99.90;;;;;;5000920;28;20133;-74
2023/01/04 13:24:17;;;;;;;12.52;4.13;;;14.30;99.90;;;;;;5016856;28;20083;-74
2023/01/04 13:26:47;;;;;;;10.73;3.47;;;14.20;99.90;;;;;;5015789;28;20879;-74
2023/01/04 13:29:30;;;;;;;9.43;3.13;;;14.10;99.90;;;;;;5000268;28;20064;-74
2023/01/04 13:31:58;;;;;;;;;;;14.10;99.90;;;;;;5014197;28;20049;-74
2023/01/04 13:34:37;;;;;;;10.45;3.15;;;14.00;99.90;;;;;;5016822;28;20309;-74
2023/01/04 13:37:36;;;;;;;8.90;3.10;;;14.00;99.90;;;;;;5000933;28;20508;-74
2023/01/04 13:40:16;;;;;;;9.75;3.33;;;14.00;99.90;;;;;;5007392;28;20059;-74
2023/01/04 13:42:47;;;;;;;8.90;3.08;;;14.00;99.90;;;;;;5013751;28;20046;-74
2023/01/04 13:45:29;;;;;;;9.25;2.88;;;13.90;99.90;;;;;;5016029;28;20108;-74
2023/01/04 13:47:57;;;;;;;12.63;3.60;;;13.90;99.90;;;;;;5011305;28;20123;-74
2023/01/04 13:50:35;;;;;;;10.30;3.97;;;13.90;99.90;;;;;;5017370;28;20053;-74
2023/01/04 13:53:03;;;;;;;8.85;3.22;;;13.90;99.90;;;;;;5011639;28;20053;-74
2023/01/04 13:55:35;;;;;;;7.47;3.10;;;14.00;99.90;;;;;;4988785;28;20050;-74
2023/01/04 13:58:14;;;;;;;7.95;3.30;;;14.00;99.90;;;;;;5001770;28;20496;-74
2023/01/04 14:00:47;;;;;;;9.15;3.47;;;14.00;99.90;;;;;;4985145;28;20132;-74
2023/01/04 14:03:40;;;;;;;10.35;4.10;;;14.00;99.90;;;;;;5011334;28;20057;-70
2023/01/04 14:06:09;;;;;;;14.73;3.60;;;13.90;99.90;;;;;;5017281;28;20111;-70